Time;durP1;ratioP1;P1;durP2;ratioP2;P2;SDS_P1;SDS_P2;PMS_P1;PMS_P2;Temp;Humidity;BMP_temperature;BMP_pressure;BME280_temperature;BME280_humidity;BME280_pressure;Samples;Min_cycle;Max_cycle;Signal;HPM_P1;HPM_P2
2022/03/24 00:00:09;;;;;;;32.07;22.50;;;13.40;42.20;;;16.30;35.89;102977.84;4995952;28;20729;-48
2022/03/24 00:02:36;;;;;;;31.93;24.27;;;13.40;42.60;;;16.24;35.67;102980.13;5006884;28;20608;-49
2022/03/24 00:05:07;;;;;;;31.93;23.10;;;13.30;42.80;;;16.21;35.77;102971.66;5015456;28;20191;-49
2022/03/24 00:07:35;;;;;;;32.07;22.20;;;13.30;43.00;;;16.16;35.60;102969.44;5015835;28;20234;-48
2022/03/24 00:10:03;;;;;;;34.57;27.27;;;13.30;42.80;;;16.15;35.85;102972.25;5010044;28;20286;-48
2022/03/24 00:12:30;;;;;;;30.10;22.50;;;13.30;43.00;;;16.11;35.90;102966.44;5015989;28;20197;-48
2022/03/24 00:14:57;;;;;;;27.40;21.90;;;13.20;42.90;;;16.09;36.28;102965.72;5015744;28;20195;-48
2022/03/24 00:17:25;;;;;;;27.93;22.70;;;13.20;43.50;;;16.07;36.26;102970.38;5015206;28;20223;-50
2022/03/24 00:19:52;;;;;;;30.80;23.03;;;13.20;43.30;;;16.04;36.29;102967.22;5015190;28;20681;-48
2022/03/24 00:22:20;;;;;;;30.70;22.70;;;13.20;43.50;;;16.01;36.32;102970.16;5014931;28;20237;-48
2022/03/24 00:24:48;;;;;;;29.07;22.13;;;13.10;43.40;;;15.96;36.40;102967.97;5010210;28;20201;-49
2022/03/24 00:27:19;;;;;;;24.63;21.07;;;13.10;43.50;;;15.92;36.67;102966.63;5014998;28;20220;-46
2022/03/24 00:29:46;;;;;;;29.57;22.40;;;13.00;43.10;;;15.89;36.42;102966.94;5014984;28;20194;-48
2022/03/24 00:32:13;;;;;;;30.97;23.00;;;13.00;43.30;;;15.84;36.27;102958.59;5014995;28;20646;-49
2022/03/24 00:34:41;;;;;;;31.07;23.23;;;12.90;43.60;;;15.81;36.62;102960.72;5015140;28;20193;-48
2022/03/24 00:37:10;;;;;;;32.13;23.33;;;12.90;43.70;;;15.76;37.03;102961.16;5014776;28;20211;-48
2022/03/24 00:39:40;;;;;;;33.27;24.73;;;12.80;44.00;;;15.72;37.09;102959.81;5008664;28;20279;-47
2022/03/24 00:42:11;;;;;;;30.17;22.90;;;12.80;44.30;;;15.68;37.23;102957.63;4995817;28;20221;-49
2022/03/24 00:44:42;;;;;;;29.90;22.20;;;12.80;44.90;;;15.65;37.23;102958.75;4995816;28;20685;-49
2022/03/24 00:47:10;;;;;;;29.87;22.93;;;12.70;44.50;;;15.64;37.19;102965.06;4995301;28;20719;-50
2022/03/24 00:49:38;;;;;;;28.17;22.23;;;12.70;44.50;;;15.63;37.08;102954.59;4995224;28;20688;-49
2022/03/24 00:52:09;;;;;;;28.60;22.30;;;12.70;44.40;;;15.61;36.93;102956.56;4995100;28;20192;-48
2022/03/24 00:54:36;;;;;;;33.80;23.70;;;12.70;44.50;;;15.59;37.13;102954.06;4995218;28;20208;-48
2022/03/24 00:57:06;;;;;;;30.20;23.03;;;12.60;44.50;;;15.57;36.82;102956.00;5012137;28;20211;-47
2022/03/24 00:59:34;;;;;;;26.80;21.67;;;12.60;44.40;;;15.56;37.01;102954.38;5015076;28;20191;-49
2022/03/24 01:02:02;;;;;;;29.90;21.70;;;12.60;44.40;;;15.53;37.04;102949.34;5015747;28;20219;-50
2022/03/24 01:04:30;;;;;;;34.23;24.07;;;12.60;44.60;;;15.52;37.22;102958.31;5015679;28;20532;-49
2022/03/24 01:06:57;;;;;;;31.57;23.30;;;12.50;45.00;;;15.50;37.30;102960.25;5014099;28;20238;-48
2022/03/24 01:09:24;;;;;;;29.67;22.00;;;12.50;44.70;;;15.49;37.18;102953.31;5014247;28;20217;-48
2022/03/24 01:11:52;;;;;;;28.30;22.93;;;12.50;44.60;;;15.47;37.19;102949.97;5003999;28;20207;-48
2022/03/24 01:14:22;;;;;;;32.70;24.20;;;12.50;44.80;;;15.44;37.31;102955.56;4994191;28;20188;-47
2022/03/24 01:16:51;;;;;;;33.80;23.80;;;12.50;44.80;;;15.41;37.16;102951.38;4993829;28;20693;-49
2022/03/24 01:19:18;;;;;;;27.77;21.90;;;12.40;44.60;;;15.39;37.41;102948.03;4994469;28;20206;-48
2022/03/24 01:21:45;;;;;;;31.00;23.70;;;12.40;44.70;;;15.37;37.38;102944.72;4994614;28;20683;-49
2022/03/24 01:24:13;;;;;;;33.97;24.83;;;12.40;45.00;;;15.35;37.59;102953.81;4994388;28;20196;-48
2022/03/24 01:26:40;;;;;;;32.33;25.00;;;12.40;45.40;;;15.33;37.59;102950.47;4993767;28;20212;-48
2022/03/24 01:29:08;;;;;;;33.47;24.50;;;12.40;45.40;;;15.28;37.69;102940.31;4993256;28;20211;-48
2022/03/24 01:31:42;;;;;;;30.97;23.17;;;12.30;45.30;;;15.27;37.71;102948.41;4998001;28;20206;-49
2022/03/24 01:34:09;;;;;;;33.27;23.43;;;12.30;45.60;;;15.24;37.83;102943.41;5014968;28;20187;-48
2022/03/24 01:36:37;;;;;;;29.30;22.83;;;12.30;45.40;;;15.22;37.79;102930.28;5013347;28;20210;-46
2022/03/24 01:39:04;;;;;;;33.13;25.03;;;12.20;45.40;;;15.21;38.02;102933.09;5013936;28;20191;-48
2022/03/24 01:41:31;;;;;;;31.80;24.90;;;12.20;45.80;;;15.20;38.15;102934.06;5013804;28;20200;-48
2022/03/24 01:43:59;;;;;;;30.43;24.20;;;12.20;45.90;;;15.17;38.26;102939.66;5006685;28;20242;-50
2022/03/24 01:46:26;;;;;;;32.43;24.00;;;12.20;46.30;;;15.12;38.39;102929.50;4993574;28;20255;-50
2022/03/24 01:48:55;;;;;;;37.37;25.50;;;12.10;46.30;;;15.09;38.54;102929.84;4993606;28;20275;-47
2022/03/24 01:51:22;;;;;;;32.07;25.93;;;12.10;46.40;;;15.06;38.52;102929.28;4993841;28;20200;-48
2022/03/24 01:53:51;;;;;;;34.00;25.47;;;12.10;46.50;;;15.01;38.43;102926.25;4993599;28;20681;-49
2022/03/24 01:56:18;;;;;;;29.50;23.57;;;12.10;46.40;;;14.97;38.58;102927.53;4993279;28;20200;-49
2022/03/24 01:58:49;;;;;;;27.67;21.83;;;12.00;46.30;;;14.95;38.56;102921.56;4993738;28;20199;-47
2022/03/24 02:01:30;;;;;;;31.13;25.30;;;11.90;46.30;;;14.89;38.71;102918.50;4996223;28;20204;-47
2022/03/24 02:04:03;;;;;;;29.50;23.80;;;11.90;46.70;;;14.86;38.66;102912.66;5013399;28;20199;-47
2022/03/24 02:06:31;;;;;;;33.17;25.27;;;11.90;46.90;;;14.82;38.96;102911.28;5011650;28;20673;-48
2022/03/24 02:08:59;;;;;;;33.17;24.70;;;11.80;47.20;;;14.78;39.08;102916.06;5014321;28;20542;-47
2022/03/24 02:11:27;;;;;;;34.47;25.37;;;11.80;47.30;;;14.74;39.11;102913.84;5017130;28;20205;-46
2022/03/24 02:13:55;;;;;;;30.77;24.93;;;11.80;47.50;;;14.70;39.29;102918.63;5017334;28;20553;-48
2022/03/24 02:16:27;;;;;;;35.87;24.93;;;11.70;47.60;;;14.65;39.25;102920.88;5015893;28;20201;-48
2022/03/24 02:18:59;;;;;;;33.77;25.17;;;11.60;47.60;;;14.61;39.58;102918.66;5016944;28;20210;-49
2022/03/24 02:21:27;;;;;;;29.93;23.43;;;11.60;48.00;;;14.58;39.48;102914.50;5016818;28;20211;-48
2022/03/24 02:23:56;;;;;;;30.60;25.03;;;11.60;47.90;;;14.56;39.63;102916.47;5017106;28;20265;-46
2022/03/24 02:26:23;;;;;;;32.90;24.77;;;11.60;48.20;;;14.56;39.62;102915.63;5016803;28;20194;-47
2022/03/24 02:28:56;;;;;;;33.13;23.57;;;11.60;48.10;;;14.56;39.24;102913.81;5016764;28;20214;-49
2022/03/24 02:31:24;;;;;;;30.33;23.67;;;11.60;47.80;;;14.54;39.75;102913.13;5016711;28;20191;-46
2022/03/24 02:34:37;;;;;;;35.40;26.70;;;11.60;48.20;;;14.52;39.84;102915.09;5000676;28;20223;-48
2022/03/24 02:36:39;;;;;;;35.40;25.87;;;11.60;48.60;;;14.47;40.00;102906.75;4996503;28;20702;-47
2022/03/24 02:39:08;;;;;;;34.73;26.37;;;11.50;48.60;;;14.44;40.20;102912.31;4996824;28;20192;-48
2022/03/24 02:41:45;;;;;;;32.67;23.90;;;11.50;49.00;;;14.40;40.08;102904.81;4997191;28;20196;-48
2022/03/24 02:44:14;;;;;;;33.33;22.93;;;11.50;48.70;;;14.40;39.85;102910.97;4997107;28;20196;-49
2022/03/24 02:46:47;;;;;;;33.20;24.50;;;11.50;48.30;;;14.37;40.05;102911.25;4996730;28;20211;-47
2022/03/24 02:49:15;;;;;;;30.50;24.20;;;11.40;48.50;;;14.34;40.14;102905.38;5009310;28;20601;-48
2022/03/24 02:51:42;;;;;;;32.03;23.80;;;11.40;48.60;;;14.29;40.06;102911.09;5018223;28;20194;-49
2022/03/24 02:54:12;;;;;;;28.70;23.87;;;11.30;48.70;;;14.24;40.11;102905.38;5019565;28;20665;-49
2022/03/24 02:56:42;;;;;;;36.37;25.43;;;11.20;48.60;;;14.20;40.28;102914.63;5017355;28;20685;-48
2022/03/24 02:59:12;;;;;;;34.90;26.17;;;11.20;48.90;;;14.13;40.65;102902.94;5016214;28;20188;-48
2022/03/24 03:01:45;;;;;;;34.00;25.10;;;11.20;49.30;;;14.08;40.88;102905.16;5016043;28;20198;-49
2022/03/24 03:04:13;;;;;;;35.47;25.67;;;11.10;49.90;;;14.03;41.21;102907.41;5015855;28;20194;-49
2022/03/24 03:06:42;;;;;;;34.30;26.70;;;11.10;50.40;;;14.04;41.20;102912.59;5015919;28;20211;-48
2022/03/24 03:09:14;;;;;;;38.43;26.27;;;11.10;50.50;;;14.06;41.50;102907.13;5016056;28;20685;-47
2022/03/24 03:11:45;;;;;;;32.23;26.20;;;11.10;50.50;;;14.07;41.41;102914.09;5016207;28;20193;-50
2022/03/24 03:14:14;;;;;;;37.03;26.00;;;11.20;50.70;;;14.08;41.57;102911.31;5014734;28;20561;-48
2022/03/24 03:16:44;;;;;;;39.20;27.30;;;11.20;50.60;;;14.09;41.56;102912.16;5001450;28;20250;-48
2022/03/24 03:19:12;;;;;;;36.27;26.83;;;11.20;50.40;;;14.06;41.20;102910.63;4996479;28;20192;-49
2022/03/24 03:21:41;;;;;;;38.47;27.73;;;11.20;50.10;;;14.05;41.25;102910.75;4996163;28;20670;-49
2022/03/24 03:24:11;;;;;;;31.93;25.80;;;11.20;50.00;;;13.99;41.27;102912.19;4996059;28;20211;-48
2022/03/24 03:26:40;;;;;;;36.00;28.83;;;11.20;50.20;;;13.95;41.43;102915.25;4995932;28;20325;-48
2022/03/24 03:29:08;;;;;;;34.17;25.63;;;11.10;50.40;;;13.87;41.51;102902.72;4999408;28;20198;-48
2022/03/24 03:31:37;;;;;;;39.53;27.73;;;11.00;50.30;;;13.83;41.62;102908.44;5015511;28;20191;-49
2022/03/24 03:34:08;;;;;;;32.13;25.70;;;11.00;50.60;;;13.82;41.66;102909.41;5015629;28;20194;-48
2022/03/24 03:36:37;;;;;;;33.00;25.43;;;10.90;50.60;;;13.79;41.74;102899.94;5015372;28;20215;-48
2022/03/24 03:39:07;;;;;;;33.40;25.63;;;10.90;50.80;;;13.79;41.61;102904.38;5015656;28;20233;-48
2022/03/24 03:41:38;;;;;;;38.60;26.07;;;10.90;50.50;;;13.77;41.27;102911.63;5015617;28;20192;-51
2022/03/24 03:44:07;;;;;;;36.80;26.23;;;10.80;50.20;;;13.75;41.50;102903.84;5015529;28;20221;-49
2022/03/24 03:46:35;;;;;;;37.87;26.77;;;10.80;50.40;;;13.74;41.04;102896.88;5013670;28;20216;-47
2022/03/24 03:49:02;;;;;;;35.47;26.60;;;10.80;50.60;;;13.72;41.21;102904.13;5015255;28;20197;-50
2022/03/24 03:51:31;;;;;;;39.37;28.57;;;10.80;50.40;;;13.70;41.30;102906.09;5015225;28;20188;-48
2022/03/24 03:53:59;;;;;;;34.50;26.60;;;10.70;50.70;;;13.65;41.50;102903.03;5015402;28;20188;-48
2022/03/24 03:56:26;;;;;;;35.43;26.83;;;10.70;50.50;;;13.62;41.45;102897.19;5014737;28;20192;-49
2022/03/24 03:58:55;;;;;;;34.33;27.90;;;10.60;50.60;;;13.61;41.54;102899.00;5014997;28;20206;-48
2022/03/24 04:01:22;;;;;;;35.43;26.63;;;10.60;50.70;;;13.58;41.67;102897.47;5014513;28;20187;-48
2022/03/24 04:03:50;;;;;;;35.47;26.57;;;10.60;50.80;;;13.58;41.42;102902.75;5015067;28;20641;-49
2022/03/24 04:06:17;;;;;;;37.07;27.20;;;10.60;50.80;;;13.56;41.57;102899.44;5014469;28;20194;-47
2022/03/24 04:08:44;;;;;;;35.30;27.30;;;10.60;50.80;;;13.54;41.45;102901.38;5014916;28;20203;-49
2022/03/24 04:11:13;;;;;;;35.27;26.87;;;10.50;50.80;;;13.54;41.50;102901.38;5014935;28;20213;-48
2022/03/24 04:13:42;;;;;;;40.90;28.63;;;10.50;51.10;;;13.52;41.98;102903.34;5014826;28;20294;-47
2022/03/24 04:16:12;;;;;;;36.43;27.07;;;10.50;51.20;;;13.53;41.63;102904.16;5014435;28;20210;-48
2022/03/24 04:18:40;;;;;;;37.20;28.07;;;10.50;50.90;;;13.53;41.69;102902.34;5014759;28;20203;-46
2022/03/24 04:21:08;;;;;;;35.43;25.93;;;10.50;51.00;;;13.53;41.55;102902.34;5015169;28;20277;-49
2022/03/24 04:23:37;;;;;;;40.93;29.33;;;10.50;50.70;;;13.52;41.46;102903.34;5014988;28;20214;-48
2022/03/24 04:26:04;;;;;;;38.20;28.53;;;10.50;51.00;;;13.52;41.33;102902.50;5014402;28;20195;-50
2022/03/24 04:28:33;;;;;;;39.80;28.63;;;10.50;51.10;;;13.52;41.56;102903.34;5014609;28;20215;-47
2022/03/24 04:31:00;;;;;;;41.03;27.43;;;10.50;51.10;;;13.53;41.55;102899.69;5013896;28;20194;-48
2022/03/24 04:33:30;;;;;;;40.63;28.93;;;10.50;51.10;;;13.50;41.76;102899.97;5012597;28;20618;-48
2022/03/24 04:35:58;;;;;;;37.87;29.50;;;10.50;51.20;;;13.49;41.81;102902.78;5014723;28;20202;-49
2022/03/24 04:38:26;;;;;;;41.60;29.20;;;10.50;51.10;;;13.45;41.70;102907.50;5014933;28;20233;-47
2022/03/24 04:40:54;;;;;;;37.40;28.07;;;10.50;51.10;;;13.42;41.72;102897.22;5020669;28;20192;-48
2022/03/24 04:43:22;;;;;;;38.50;27.47;;;10.40;51.20;;;13.39;41.62;102897.47;5020987;28;20610;-46
2022/03/24 04:45:49;;;;;;;38.20;28.00;;;10.40;51.00;;;13.38;41.86;102901.09;5019296;28;20602;-49
2022/03/24 04:48:17;;;;;;;40.10;28.50;;;10.40;51.20;;;13.32;42.16;102901.66;5018372;28;20273;-47
2022/03/24 04:50:46;;;;;;;37.23;27.30;;;10.30;51.70;;;13.28;42.18;102900.28;5003951;28;20196;-50
2022/03/24 04:53:16;;;;;;;40.10;28.67;;;10.30;51.70;;;13.24;42.19;102903.34;5001120;28;20193;-52
2022/03/24 04:55:45;;;;;;;41.07;27.73;;;10.30;51.70;;;13.20;41.89;102908.06;5001286;28;20648;-46
2022/03/24 04:58:14;;;;;;;38.43;27.93;;;10.20;51.60;;;13.16;42.36;102903.19;4995794;28;20276;-48
2022/03/24 05:00:41;;;;;;;36.73;27.03;;;10.10;51.70;;;13.10;42.40;102901.91;4994379;28;20187;-48
2022/03/24 05:03:09;;;;;;;39.20;27.97;;;10.10;51.90;;;13.04;42.33;102902.44;5010919;28;20226;-48
2022/03/24 05:05:36;;;;;;;41.13;29.37;;;10.00;52.30;;;13.02;42.89;102908.84;5010410;28;20242;-48
2022/03/24 05:08:05;;;;;;;38.23;28.10;;;10.00;52.80;;;12.99;43.24;102907.31;4993821;28;20219;-50
2022/03/24 05:10:33;;;;;;;41.10;29.93;;;10.00;53.00;;;12.99;42.93;102909.09;4994063;28;20194;-50
2022/03/24 05:13:00;;;;;;;36.40;27.70;;;10.00;52.70;;;12.98;42.74;102908.25;4994122;28;20196;-49
2022/03/24 05:15:27;;;;;;;39.77;27.70;;;10.00;52.60;;;12.99;42.82;102915.22;4994090;28;20191;-48
2022/03/24 05:17:55;;;;;;;35.27;27.70;;;10.00;52.60;;;13.00;43.15;102911.63;4993898;28;20226;-49
2022/03/24 05:20:23;;;;;;;35.40;26.67;;;10.00;52.60;;;13.02;42.95;102914.13;4994437;28;20271;-48
2022/03/24 05:22:50;;;;;;;39.33;29.73;;;10.00;52.60;;;13.03;42.90;102913.13;5008280;28;20298;-48
2022/03/24 05:25:19;;;;;;;40.97;29.27;;;10.10;52.80;;;13.04;42.99;102910.38;5013975;28;20188;-48
2022/03/24 05:27:46;;;;;;;37.10;28.23;;;10.10;52.70;;;13.02;43.04;102909.69;5013426;28;20211;-49
2022/03/24 05:30:13;;;;;;;41.20;30.37;;;10.10;52.70;;;13.02;43.17;102898.25;5014036;28;20194;-48
2022/03/24 05:32:41;;;;;;;38.47;27.93;;;10.00;53.10;;;13.01;42.80;102902.69;5013722;28;20199;-50
2022/03/24 05:35:09;;;;;;;35.57;26.93;;;10.10;52.90;;;13.01;42.67;102899.22;5013691;28;20469;-48
2022/03/24 05:37:37;;;;;;;38.63;28.53;;;10.00;52.50;;;13.00;42.76;102903.69;5012110;28;20222;-51
2022/03/24 05:40:06;;;;;;;37.47;27.20;;;10.00;52.60;;;12.99;42.73;102899.38;5014046;28;20658;-46
2022/03/24 05:42:35;;;;;;;36.50;28.33;;;10.00;52.70;;;12.97;42.75;102906.59;5014566;28;20295;-48
2022/03/24 05:45:03;;;;;;;38.67;27.90;;;10.00;52.60;;;12.97;43.08;102903.97;5013628;28;20195;-48
2022/03/24 05:47:31;;;;;;;40.50;28.97;;;9.90;53.80;;;12.96;42.88;102910.22;5013378;28;20207;-48
2022/03/24 05:49:58;;;;;;;39.63;27.63;;;9.90;53.80;;;12.95;42.98;102900.63;5013947;28;20533;-46
2022/03/24 05:52:25;;;;;;;40.27;28.43;;;9.90;53.60;;;12.96;42.58;102912.00;5013719;28;20668;-48
2022/03/24 05:54:53;;;;;;;36.17;26.73;;;9.90;53.60;;;12.95;42.39;102908.56;5012203;28;20191;-49
2022/03/24 05:57:20;;;;;;;37.10;27.50;;;9.90;53.50;;;12.95;42.72;102911.19;5013716;28;20681;-49
2022/03/24 05:59:49;;;;;;;41.13;28.90;;;9.90;53.40;;;12.95;42.59;102913.84;5014523;28;20217;-49
2022/03/24 06:02:17;;;;;;;36.73;26.87;;;9.90;54.10;;;12.95;42.30;102927.06;5013379;28;20229;-49
2022/03/24 06:04:45;;;;;;;43.03;28.97;;;9.90;53.40;;;12.96;42.46;102914.66;5013625;28;20211;-48
2022/03/24 06:07:14;;;;;;;40.03;28.00;;;9.90;53.80;;;12.97;42.79;102917.19;5013425;28;20233;-49
2022/03/24 06:09:42;;;;;;;36.77;28.10;;;9.80;53.90;;;12.97;43.21;102921.63;5013873;28;20198;-48
2022/03/24 06:12:10;;;;;;;39.20;28.60;;;9.90;54.30;;;12.99;42.80;102920.50;5014374;28;20197;-47
2022/03/24 06:14:40;;;;;;;36.97;28.07;;;9.90;54.50;;;13.01;42.77;102923.84;5013675;28;20617;-47
2022/03/24 06:17:09;;;;;;;43.17;29.47;;;9.90;54.30;;;13.04;43.26;102917.47;5013784;28;20227;-49
2022/03/24 06:19:37;;;;;;;37.43;28.40;;;9.90;54.70;;;13.08;43.36;102930.31;5013517;28;20220;-48
2022/03/24 06:22:05;;;;;;;39.37;29.10;;;10.00;53.70;;;13.13;42.77;102922.78;5014468;28;20199;-47
2022/03/24 06:24:34;;;;;;;39.03;29.13;;;10.00;53.60;;;13.19;43.04;102926.72;5013956;28;20555;-49
2022/03/24 06:27:02;;;;;;;40.13;28.30;;;10.10;53.60;;;13.25;42.79;102926.16;5013236;28;20211;-48
2022/03/24 06:29:29;;;;;;;38.57;27.23;;;10.10;53.30;;;13.29;42.57;102928.38;5014484;28;20677;-48
2022/03/24 06:31:57;;;;;;;36.90;27.23;;;10.20;53.10;;;13.35;42.51;102921.69;5014935;28;20565;-46
2022/03/24 06:34:26;;;;;;;39.60;27.90;;;10.20;52.90;;;13.41;42.47;102926.44;5015831;28;20195;-46
2022/03/24 06:36:56;;;;;;;43.73;29.97;;;10.30;52.80;;;13.45;42.28;102928.66;5016671;28;20203;-47
2022/03/24 06:39:24;;;;;;;32.90;27.33;;;10.30;52.60;;;13.50;41.98;102931.72;5017068;28;20199;-47
2022/03/24 06:41:51;;;;;;;35.37;26.87;;;10.40;52.60;;;13.57;42.03;102924.09;5016776;28;20594;-49
2022/03/24 06:44:19;;;;;;;41.17;27.87;;;10.40;52.40;;;13.65;41.58;102931.28;4999319;28;20224;-50
2022/03/24 06:46:46;;;;;;;39.60;28.93;;;10.50;52.00;;;13.72;41.54;102930.59;4994483;28;20288;-48
2022/03/24 06:49:15;;;;;;;41.00;28.27;;;10.60;52.10;;;13.76;41.01;102931.16;4994166;28;20192;-49
2022/03/24 06:51:43;;;;;;;39.90;28.43;;;10.60;51.20;;;13.82;40.90;102923.50;4995009;28;20215;-49
2022/03/24 06:54:11;;;;;;;38.63;27.63;;;10.70;51.00;;;13.91;40.70;102925.28;4995132;28;20653;-46
2022/03/24 06:56:38;;;;;;;37.80;27.67;;;10.80;50.70;;;14.01;40.68;102928.75;4997878;28;20216;-47
2022/03/24 06:59:06;;;;;;;37.17;27.87;;;10.90;50.40;;;14.09;40.38;102925.38;4999559;28;20194;-48
2022/03/24 07:01:33;;;;;;;36.50;27.77;;;11.10;50.20;;;14.21;40.15;102924.25;5015196;28;20187;-47
2022/03/24 07:04:01;;;;;;;33.23;26.17;;;11.10;50.00;;;14.35;39.72;102931.75;5018216;28;20306;-48
2022/03/24 07:06:28;;;;;;;34.67;25.03;;;11.20;49.70;;;14.50;39.18;102927.63;5016653;28;20198;-48
2022/03/24 07:08:57;;;;;;;38.50;27.17;;;11.40;49.00;;;14.74;38.80;102938.53;5018586;28;20191;-48
2022/03/24 07:11:24;;;;;;;37.13;26.83;;;11.60;48.60;;;15.02;38.08;102939.38;5018197;28;20202;-47
2022/03/24 07:13:52;;;;;;;32.93;25.37;;;11.70;48.00;;;15.37;37.92;102933.25;5018332;28;20195;-48
2022/03/24 07:16:19;;;;;;;36.97;28.10;;;11.90;48.00;;;15.82;37.48;102934.00;5016897;28;20203;-48
2022/03/24 07:18:46;;;;;;;35.80;27.10;;;12.30;47.80;;;16.27;35.93;102934.63;5017536;28;20187;-48
2022/03/24 07:21:14;;;;;;;37.77;26.13;;;12.60;46.40;;;16.71;35.09;102946.00;5006021;28;20199;-48
2022/03/24 07:23:43;;;;;;;33.13;26.20;;;13.00;45.30;;;17.13;34.18;102937.16;5017224;28;20716;-49
2022/03/24 07:26:12;;;;;;;35.40;27.40;;;13.40;44.10;;;17.67;34.14;102935.75;5016899;28;20205;-48
2022/03/24 07:28:39;;;;;;;35.87;24.07;;;13.80;44.30;;;18.29;33.48;102945.66;5017046;28;20192;-49
2022/03/24 07:31:13;;;;;;;31.93;23.90;;;14.30;44.20;;;18.97;32.64;102939.75;5016889;28;20188;-49
2022/03/24 07:33:40;;;;;;;31.00;24.77;;;14.80;42.60;;;19.63;31.68;102934.63;5016644;28;20197;-50
2022/03/24 07:36:08;;;;;;;37.87;26.20;;;15.30;42.30;;;20.30;30.78;102934.69;5000069;28;20200;-48
2022/03/24 07:38:36;;;;;;;31.43;25.13;;;15.90;40.60;;;20.86;30.05;102933.97;4995371;28;20239;-49
2022/03/24 07:41:03;;;;;;;32.67;26.37;;;16.40;39.90;;;21.34;28.24;102946.69;4996667;28;20510;-49
2022/03/24 07:43:32;;;;;;;29.07;25.70;;;16.90;37.70;;;21.87;28.25;102942.63;4996995;28;20220;-49
2022/03/24 07:46:00;;;;;;;30.37;24.47;;;17.40;37.70;;;22.37;27.46;102941.50;4996887;28;20267;-49
2022/03/24 07:48:27;;;;;;;32.33;26.47;;;17.90;37.30;;;22.84;26.45;102944.22;4996796;28;20215;-49
2022/03/24 07:50:57;;;;;;;27.47;24.47;;;18.30;35.00;;;23.22;26.26;102946.41;4997491;28;20250;-49
2022/03/24 07:53:52;;;;;;;31.93;28.13;;;18.60;34.30;;;23.73;25.91;102942.13;4996389;28;20215;-49
2022/03/24 07:56:24;;;;;;;29.33;25.10;;;19.10;34.10;;;24.26;24.91;102934.03;4995993;28;20192;-48
2022/03/24 07:58:54;;;;;;;36.07;32.13;;;19.50;33.10;;;24.65;24.27;102934.69;4996608;28;20238;-49
2022/03/24 08:01:27;;;;;;;35.50;27.10;;;19.90;32.50;;;25.05;24.22;102945.34;4998763;28;20738;-48
2022/03/24 08:03:57;;;;;;;27.93;24.97;;;20.30;31.30;;;25.35;23.14;102936.41;5015867;28;20204;-48
2022/03/24 08:06:25;;;;;;;27.23;24.40;;;20.60;29.90;;;25.53;22.93;102939.22;5015318;28;20268;-49
2022/03/24 08:08:53;;;;;;;28.17;24.07;;;20.90;29.30;;;25.59;22.58;102947.47;4996971;28;20251;-50
2022/03/24 08:11:22;;;;;;;28.77;24.10;;;21.30;28.70;;;25.53;22.07;102943.78;4996554;28;20198;-49
2022/03/24 08:13:54;;;;;;;25.40;22.63;;;21.50;28.10;;;25.53;21.71;102941.91;4996990;28;20283;-50
2022/03/24 08:16:24;;;;;;;28.37;25.37;;;21.60;27.10;;;25.60;21.96;102943.75;5004446;28;20274;-49
2022/03/24 08:18:53;;;;;;;28.17;24.70;;;21.70;26.90;;;25.80;21.79;102947.91;5002095;28;20647;-48
2022/03/24 08:21:21;;;;;;;27.03;23.00;;;21.90;26.70;;;26.18;21.15;102945.06;5004483;28;20544;-49
2022/03/24 08:23:49;;;;;;;24.33;21.73;;;22.00;26.90;;;26.67;20.93;102952.22;5001333;28;20741;-46
2022/03/24 08:26:16;;;;;;;29.73;23.13;;;22.20;27.30;;;27.11;20.84;102946.41;5004583;28;20273;-47
2022/03/24 08:28:45;;;;;;;27.73;24.33;;;22.50;27.00;;;27.54;20.20;102943.50;5000365;28;20198;-47
2022/03/24 08:31:12;;;;;;;29.77;24.60;;;22.70;26.70;;;27.89;19.24;102952.47;4998943;28;20245;-49
2022/03/24 08:33:41;;;;;;;30.70;27.53;;;23.00;25.70;;;28.26;19.42;102949.53;5016477;28;20553;-50
2022/03/24 08:36:10;;;;;;;30.70;27.63;;;23.20;25.70;;;28.40;18.41;102950.91;5000681;28;20222;-50
2022/03/24 08:38:37;;;;;;;27.90;25.03;;;23.40;24.70;;;28.57;18.68;102954.53;4999601;28;20219;-49
2022/03/24 08:41:04;;;;;;;28.77;25.73;;;23.70;25.00;;;28.89;18.45;102950.31;5001486;28;20219;-47
2022/03/24 08:43:32;;;;;;;26.23;22.83;;;23.90;24.90;;;29.28;18.29;102957.59;5003515;28;20203;-49
2022/03/24 08:46:06;;;;;;;28.17;24.10;;;24.10;25.20;;;29.69;17.92;102953.63;5003831;28;20658;-47
2022/03/24 08:48:34;;;;;;;28.33;24.10;;;24.40;24.80;;;30.04;17.39;102961.53;4998966;28;20219;-51
2022/03/24 08:51:03;;;;;;;27.40;24.53;;;24.70;24.60;;;30.37;17.19;102956.03;5004010;28;20319;-49
2022/03/24 08:53:30;;;;;;;27.03;23.93;;;24.90;24.40;;;30.63;17.36;102960.72;5000101;28;20218;-50
2022/03/24 08:55:58;;;;;;;31.00;27.63;;;25.20;24.20;;;30.86;16.43;102958.78;5028119;28;20203;-52
2022/03/24 08:58:25;;;;;;;29.07;25.03;;;25.40;23.10;;;31.02;16.88;102964.16;5011806;28;20307;-52
2022/03/24 09:00:52;;;;;;;25.17;22.67;;;25.60;23.40;;;31.21;16.30;102957.25;4995863;28;20200;-52
2022/03/24 09:03:22;;;;;;;26.57;23.97;;;25.80;23.70;;;31.48;16.03;102957.25;5000556;28;20317;-52
2022/03/24 09:05:49;;;;;;;26.13;23.50;;;26.10;23.30;;;31.79;16.39;102961.03;5006317;28;20221;-53
2022/03/24 09:08:18;;;;;;;26.53;24.03;;;26.30;23.00;;;32.12;15.72;102957.19;5009266;28;20625;-52
2022/03/24 09:10:50;;;;;;;25.70;23.30;;;26.50;22.10;;;32.33;15.22;102962.44;5004310;28;20282;-55
2022/03/24 09:13:17;;;;;;;26.67;24.07;;;26.70;21.50;;;32.55;15.49;102959.56;4997557;28;20182;-53
2022/03/24 09:15:45;;;;;;;30.17;27.20;;;27.00;21.70;;;32.90;14.46;102964.31;4995578;28;20215;-51
2022/03/24 09:18:13;;;;;;;24.97;22.37;;;27.20;21.50;;;33.24;14.31;102960.03;4996452;28;20215;-53
2022/03/24 09:20:42;;;;;;;26.07;23.37;;;27.40;21.20;;;33.49;13.99;102962.78;5001226;28;20665;-53
2022/03/24 09:23:10;;;;;;;25.53;23.13;;;27.70;20.80;;;33.74;13.91;102962.75;5007784;28;20195;-50
2022/03/24 09:25:39;;;;;;;24.20;22.00;;;27.90;20.20;;;33.80;13.75;102969.06;5005201;28;20222;-52
2022/03/24 09:28:07;;;;;;;24.83;22.27;;;28.10;20.00;;;33.72;14.00;102956.75;5011159;28;20249;-50
2022/03/24 09:30:36;;;;;;;25.13;22.80;;;28.30;19.60;;;33.57;13.71;102964.16;5010433;28;20626;-52
2022/03/24 09:33:04;;;;;;;24.60;22.20;;;28.40;19.10;;;33.46;13.89;102962.47;5011929;28;20314;-53
2022/03/24 09:35:33;;;;;;;25.60;22.90;;;28.50;19.00;;;33.37;13.66;102960.31;5005976;28;20203;-54
2022/03/24 09:38:00;;;;;;;29.07;23.87;;;28.50;19.00;;;33.33;13.64;102963.84;4998351;28;20311;-51
2022/03/24 09:40:30;;;;;;;28.57;23.60;;;28.50;18.90;;;33.42;13.45;102963.03;4994729;28;20279;-52
2022/03/24 09:43:01;;;;;;;26.53;23.83;;;28.60;19.50;;;33.74;14.12;102964.66;5001711;28;20198;-50
2022/03/24 09:45:28;;;;;;;24.03;21.90;;;28.70;19.20;;;33.94;13.78;102959.19;4994641;28;20290;-53
2022/03/24 09:47:57;;;;;;;23.43;21.10;;;28.80;19.30;;;34.23;13.31;102962.13;5001370;28;20215;-54
2022/03/24 09:50:25;;;;;;;25.80;23.10;;;29.00;19.10;;;34.60;13.36;102957.88;4999238;28;20215;-52
2022/03/24 09:52:53;;;;;;;25.03;22.47;;;29.10;19.10;;;35.05;12.84;102961.47;5000129;28;20196;-52
2022/03/24 09:55:20;;;;;;;25.97;23.37;;;29.30;18.90;;;35.44;12.43;102965.00;5012172;28;20595;-55
2022/03/24 09:57:48;;;;;;;28.33;25.35;;;29.60;18.70;;;35.76;12.73;102958.94;5004889;28;20207;-52
2022/03/24 10:00:37;;;;;;;25.77;23.13;;;29.80;18.30;;;36.11;12.34;102955.84;4994852;28;20236;-53
2022/03/24 10:03:14;;;;;;;26.45;23.85;;;30.10;18.40;;;36.29;11.30;102962.47;5002899;28;20187;-56
2022/03/24 10:05:58;;;;;;;28.38;25.67;;;30.20;17.50;;;36.26;11.91;102952.09;5003324;28;20211;-52